Time;durP1;ratioP1;P1;durP2;ratioP2;P2;SDS_P1;SDS_P2;PMS_P1;PMS_P2;Temp;Humidity;BMP_temperature;BMP_pressure;BME280_temperature;BME280_humidity;BME280_pressure;Samples;Min_cycle;Max_cycle;Signal;HPM_P1;HPM_P2
2023/10/07 00:02:30;;;;;;;4.93;3.60;;;;;;;22.84;46.39;101105.97;41698407;28;20049;-66
2023/10/07 00:22:40;;;;;;;5.38;3.60;;;;;;;22.77;46.19;101087.06;41692227;28;20049;-66
2023/10/07 00:42:44;;;;;;;5.18;3.92;;;;;;;22.74;46.24;101070.59;41695834;28;20057;-66
2023/10/07 01:02:50;;;;;;;6.07;3.63;;;;;;;22.73;46.04;101031.97;41713559;28;20052;-66
2023/10/07 01:23:07;;;;;;;;;;;;;;;22.67;46.32;101007.72;41730469;28;20045;-67
2023/10/07 01:43:07;;;;;;;4.97;3.63;;;;;;;22.65;46.19;100988.50;41728519;28;19944;-67
2023/10/07 02:03:13;;;;;;;5.47;3.92;;;;;;;22.63;46.28;100981.66;41718522;28;20049;-67
2023/10/07 02:23:15;;;;;;;5.30;3.70;;;;;;;22.59;46.10;100969.66;41727444;28;20049;-67
2023/10/07 02:43:16;;;;;;;6.07;3.92;;;;;;;22.54;46.20;100952.38;41715588;28;20067;-67
2023/10/07 03:23:26;;;;;;;4.75;3.53;;;;;;;22.52;45.82;100927.00;41721062;28;20071;-68
2023/10/07 03:43:27;;;;;;;5.18;4.00;;;;;;;22.47;45.98;100931.81;41716222;28;20068;-63
2023/10/07 04:03:28;;;;;;;6.28;4.07;;;;;;;22.42;45.88;100947.97;41714245;28;20045;-68
2023/10/07 04:23:29;;;;;;;5.40;3.88;;;;;;;22.35;45.69;100917.69;41716095;28;20072;-65
2023/10/07 04:43:49;;;;;;;6.00;3.70;;;;;;;22.34;45.97;100900.19;41724655;28;20094;-66
2023/10/07 05:03:55;;;;;;;5.07;3.88;;;;;;;22.27;45.95;100899.78;41712381;28;20053;-66
2023/10/07 05:23:55;;;;;;;5.80;3.97;;;;;;;22.29;46.11;100908.44;41717312;28;20046;-66
2023/10/07 05:43:56;;;;;;;6.03;4.43;;;;;;;22.32;45.68;100915.28;41716816;28;20081;-67
2023/10/07 06:03:58;;;;;;;5.60;4.20;;;;;;;22.35;45.82;100923.81;41715832;28;20500;-67
2023/10/07 06:23:59;;;;;;;5.78;4.50;;;;;;;21.87;45.65;100850.84;41722427;28;20152;-66
2023/10/07 06:44:02;;;;;;;5.85;4.50;;;;;;;22.37;45.84;100932.47;41707641;28;20110;-66
2023/10/07 07:04:14;;;;;;;5.90;4.05;;;;;;;22.34;46.00;100916.03;41698418;28;20124;-67
2023/10/07 07:24:20;;;;;;;7.53;4.30;;;;;;;22.44;45.79;100927.59;41690005;28;20127;-65
2023/10/07 07:44:34;;;;;;;6.57;4.22;;;;;;;22.48;45.69;100938.75;41697083;28;20072;-66
2023/10/07 08:04:46;;;;;;;6.45;4.55;;;;;;;22.47;45.85;100918.59;41735312;28;20496;-66
2023/10/07 08:24:47;;;;;;;5.70;4.13;;;;;;;22.59;45.70;100908.94;41733082;28;20077;-67
2023/10/07 08:44:58;;;;;;;7.38;4.30;;;;;;;22.63;45.87;100900.69;41728728;28;20094;-67
2023/10/07 09:04:59;;;;;;;6.35;4.60;;;;;;;22.64;45.64;100897.09;41721230;28;20098;-67
2023/10/07 09:25:17;;;;;;;4.50;3.90;;;;;;;22.82;45.50;100888.72;41719587;28;20134;-66
2023/10/07 09:45:27;;;;;;;5.45;4.30;;;;;;;22.81;45.50;100881.75;41692246;28;20094;-66
2023/10/07 10:05:50;;;;;;;5.50;4.30;;;;;;;22.92;45.41;100865.06;41691971;28;20095;-65
2023/10/07 10:25:53;;;;;;;5.50;4.20;;;;;;;23.07;45.53;100836.63;41699114;28;20056;-67
2023/10/07 10:46:05;;;;;;;6.35;4.30;;;;;;;23.23;45.40;100833.66;41689745;28;20049;-67
2023/10/07 11:06:10;;;;;;;5.97;4.60;;;;;;;23.32;44.92;100794.13;41695178;28;20110;-67
2023/10/07 11:26:11;;;;;;;;;;;;;;;23.26;44.95;100770.00;41693396;28;20049;-66
2023/10/07 11:46:13;;;;;;;7.10;5.97;;;;;;;23.30;44.95;100756.44;41701867;28;19979;-66
2023/10/07 12:06:15;;;;;;;8.10;6.05;;;;;;;23.46;44.46;100697.03;41698005;28;20095;-68
2023/10/07 12:26:18;;;;;;;8.30;6.40;;;;;;;23.79;44.35;100705.75;41696027;28;20559;-66
2023/10/07 12:46:20;;;;;;;8.77;6.28;;;;;;;23.78;44.40;100701.47;41706797;28;20045;-68
2023/10/07 13:06:23;;;;;;;7.50;6.00;;;;;;;23.71;44.44;100673.84;41721446;28;20060;-66
2023/10/07 13:26:23;;;;;;;6.97;5.50;;;;;;;23.82;44.36;100676.44;41709943;28;20095;-65
2023/10/07 13:46:24;;;;;;;6.72;5.18;;;;;;;23.64;44.66;100671.72;41707648;28;20091;-65
2023/10/07 14:06:27;;;;;;;7.03;5.40;;;;;;;23.52;45.16;100671.91;41706438;28;20501;-66
2023/10/07 14:26:32;;;;;;;6.03;5.03;;;;;;;23.51;44.50;100631.44;41705262;28;20106;-67
2023/10/07 14:46:33;;;;;;;6.55;5.13;;;;;;;23.49;44.91;100625.44;41701721;28;20037;-65
2023/10/07 15:06:33;;;;;;;6.50;4.93;;;;;;;23.20;45.22;100604.06;41700495;28;20053;-65
2023/10/07 15:26:34;;;;;;;5.82;4.80;;;;;;;23.20;45.45;100622.56;41694360;28;20050;-67
2023/10/07 15:46:34;;;;;;;6.75;5.05;;;;;;;22.95;45.40;100595.47;41695729;28;20045;-67
2023/10/07 16:06:36;;;;;;;7.38;5.32;;;;;;;23.09;45.45;100628.69;41700173;28;20129;-66
2023/10/07 16:26:39;;;;;;;6.22;5.05;;;;;;;23.06;45.46;100627.13;41724036;28;20049;-65
2023/10/07 16:46:44;;;;;;;6.97;5.38;;;;;;;23.05;45.37;100614.91;41724816;28;20052;-67
2023/10/07 17:06:44;;;;;;;7.35;5.60;;;;;;;23.00;45.55;100614.44;41723708;28;20567;-67
2023/10/07 17:26:45;;;;;;;6.88;5.57;;;;;;;22.94;45.61;100591.19;41712970;28;20091;-66
2023/10/07 17:46:46;;;;;;;7.57;5.35;;;;;;;22.91;45.45;100594.91;41716750;28;20500;-66
2023/10/07 18:06:48;;;;;;;7.38;5.75;;;;;;;22.92;45.38;100603.66;41706201;28;20049;-66
2023/10/07 18:26:48;;;;;;;7.70;5.82;;;;;;;22.87;45.58;100585.53;41705866;28;20049;-67
2023/10/07 18:46:49;;;;;;;8.32;6.18;;;;;;;22.86;45.34;100599.69;41699736;28;20049;-66
2023/10/07 19:06:50;;;;;;;9.45;5.50;;;;;;;22.84;45.29;100594.56;41708516;28;20524;-66
2023/10/07 19:26:51;;;;;;;7.20;5.40;;;;;;;22.82;45.16;100567.44;41708099;28;20068;-66
2023/10/07 19:46:51;;;;;;;6.90;5.50;;;;;;;22.80;45.28;100552.69;41696547;28;20037;-66
2023/10/07 20:06:52;;;;;;;6.78;5.57;;;;;;;22.77;45.22;100526.56;41693130;28;20041;-67
2023/10/07 20:26:52;;;;;;;8.05;5.63;;;;;;;22.68;45.16;100501.75;41697513;28;20049;-69
2023/10/07 20:46:52;;;;;;;7.70;5.93;;;;;;;22.69;45.21;100516.59;41690973;28;20182;-67
2023/10/07 21:06:54;;;;;;;7.07;5.47;;;;;;;22.74;45.19;100532.06;41703119;28;20045;-66
2023/10/07 21:26:55;;;;;;;6.95;5.25;;;;;;;22.69;45.27;100512.19;41715460;28;20052;-67
2023/10/07 21:46:56;;;;;;;7.30;5.57;;;;;;;22.64;44.95;100474.78;41710150;28;20037;-65
2023/10/07 22:06:56;;;;;;;5.70;4.70;;;;;;;22.53;45.30;100456.31;41710711;28;20401;-66
2023/10/07 22:26:57;;;;;;;5.35;4.65;;;;;;;22.58;45.41;100430.38;41708174;28;20102;-67
2023/10/07 22:47:07;;;;;;;5.45;4.38;;;;;;;22.49;45.28;100404.78;41703567;28;20048;-65
2023/10/07 23:07:23;;;;;;;5.57;4.57;;;;;;;22.60;45.04;100419.72;41702603;28;20045;-66
2023/10/07 23:27:23;;;;;;;;;;;;;;;22.62;45.04;100399.31;41704340;28;20421;-65
2023/10/07 23:47:23;;;;;;;5.57;4.35;;;;;;;22.63;44.79;100417.66;41696988;28;19968;-66
